sensor_id;sensor_type;location;lat;lon;timestamp;P1;durP1;ratioP1;P2;durP2;ratioP2
44850;SDS011;30583;48.714;9.386;2022-12-10T00:01:37;43.22;;;25.50;;
44850;SDS011;30583;48.714;9.386;2022-12-10T00:04:03;42.78;;;25.65;;
44850;SDS011;30583;48.714;9.386;2022-12-10T00:06:30;44.13;;;25.77;;
44850;SDS011;30583;48.714;9.386;2022-12-10T00:08:58;42.67;;;25.08;;
44850;SDS011;30583;48.714;9.386;2022-12-10T00:11:28;42.65;;;25.10;;
44850;SDS011;30583;48.714;9.386;2022-12-10T00:13:54;40.60;;;24.60;;
44850;SDS011;30583;48.714;9.386;2022-12-10T00:16:21;38.63;;;23.23;;
44850;SDS011;30583;48.714;9.386;2022-12-10T00:18:48;39.53;;;22.50;;
44850;SDS011;30583;48.714;9.386;2022-12-10T00:21:15;37.63;;;22.50;;
44850;SDS011;30583;48.714;9.386;2022-12-10T00:24:01;39.97;;;22.75;;
44850;SDS011;30583;48.714;9.386;2022-12-10T00:26:32;43.67;;;23.63;;
44850;SDS011;30583;48.714;9.386;2022-12-10T00:29:00;39.00;;;24.05;;
44850;SDS011;30583;48.714;9.386;2022-12-10T00:31:32;36.17;;;21.30;;
44850;SDS011;30583;48.714;9.386;2022-12-10T00:34:00;39.83;;;21.70;;
44850;SDS011;30583;48.714;9.386;2022-12-10T00:36:29;37.50;;;22.60;;
44850;SDS011;30583;48.714;9.386;2022-12-10T00:38:57;40.45;;;23.50;;
44850;SDS011;30583;48.714;9.386;2022-12-10T00:41:23;40.92;;;23.48;;
44850;SDS011;30583;48.714;9.386;2022-12-10T00:43:48;41.28;;;24.17;;
44850;SDS011;30583;48.714;9.386;2022-12-10T00:46:15;43.40;;;23.52;;
44850;SDS011;30583;48.714;9.386;2022-12-10T00:48:42;42.92;;;22.73;;
44850;SDS011;30583;48.714;9.386;2022-12-10T00:51:09;36.67;;;21.85;;
44850;SDS011;30583;48.714;9.386;2022-12-10T00:53:38;44.03;;;23.63;;
44850;SDS011;30583;48.714;9.386;2022-12-10T00:56:05;41.95;;;23.20;;
44850;SDS011;30583;48.714;9.386;2022-12-10T00:58:32;43.75;;;22.30;;
44850;SDS011;30583;48.714;9.386;2022-12-10T01:03:53;48.42;;;23.88;;
44850;SDS011;30583;48.714;9.386;2022-12-10T01:06:22;49.00;;;24.10;;
44850;SDS011;30583;48.714;9.386;2022-12-10T01:08:53;54.33;;;24.83;;
44850;SDS011;30583;48.714;9.386;2022-12-10T01:11:21;49.22;;;23.60;;
44850;SDS011;30583;48.714;9.386;2022-12-10T01:13:49;50.50;;;22.52;;
44850;SDS011;30583;48.714;9.386;2022-12-10T01:16:17;45.08;;;22.98;;
44850;SDS011;30583;48.714;9.386;2022-12-10T01:18:44;43.00;;;21.98;;
44850;SDS011;30583;48.714;9.386;2022-12-10T01:21:11;42.33;;;21.63;;
44850;SDS011;30583;48.714;9.386;2022-12-10T01:23:40;41.25;;;22.80;;
44850;SDS011;30583;48.714;9.386;2022-12-10T01:26:07;36.33;;;20.60;;
44850;SDS011;30583;48.714;9.386;2022-12-10T01:28:36;40.38;;;22.45;;
44850;SDS011;30583;48.714;9.386;2022-12-10T01:31:04;38.03;;;21.05;;
44850;SDS011;30583;48.714;9.386;2022-12-10T01:33:35;38.50;;;21.05;;
44850;SDS011;30583;48.714;9.386;2022-12-10T01:36:02;37.63;;;21.65;;
44850;SDS011;30583;48.714;9.386;2022-12-10T01:38:29;37.60;;;21.58;;
44850;SDS011;30583;48.714;9.386;2022-12-10T01:40:55;33.50;;;19.90;;
44850;SDS011;30583;48.714;9.386;2022-12-10T01:43:20;34.45;;;19.52;;
44850;SDS011;30583;48.714;9.386;2022-12-10T01:45:46;40.30;;;21.73;;
44850;SDS011;30583;48.714;9.386;2022-12-10T01:48:11;36.38;;;21.40;;
44850;SDS011;30583;48.714;9.386;2022-12-10T01:50:37;32.28;;;19.83;;
44850;SDS011;30583;48.714;9.386;2022-12-10T01:53:03;34.58;;;19.75;;
44850;SDS011;30583;48.714;9.386;2022-12-10T01:55:46;36.55;;;20.85;;
44850;SDS011;30583;48.714;9.386;2022-12-10T01:58:15;38.22;;;20.67;;
44850;SDS011;30583;48.714;9.386;2022-12-10T02:01:02;35.70;;;19.92;;
44850;SDS011;30583;48.714;9.386;2022-12-10T02:06:16;34.90;;;20.88;;
44850;SDS011;30583;48.714;9.386;2022-12-10T02:08:53;35.53;;;20.63;;
44850;SDS011;30583;48.714;9.386;2022-12-10T02:11:40;36.72;;;21.75;;
44850;SDS011;30583;48.714;9.386;2022-12-10T02:14:16;37.05;;;20.90;;
44850;SDS011;30583;48.714;9.386;2022-12-10T02:16:52;35.30;;;20.30;;
44850;SDS011;30583;48.714;9.386;2022-12-10T02:19:28;30.50;;;19.55;;
44850;SDS011;30583;48.714;9.386;2022-12-10T02:22:10;31.88;;;19.95;;
44850;SDS011;30583;48.714;9.386;2022-12-10T02:24:38;34.67;;;20.88;;
44850;SDS011;30583;48.714;9.386;2022-12-10T02:27:08;35.25;;;19.95;;
44850;SDS011;30583;48.714;9.386;2022-12-10T02:32:07;34.03;;;19.45;;
44850;SDS011;30583;48.714;9.386;2022-12-10T02:34:39;32.25;;;19.45;;
44850;SDS011;30583;48.714;9.386;2022-12-10T02:37:11;35.38;;;22.17;;
44850;SDS011;30583;48.714;9.386;2022-12-10T02:39:44;36.00;;;19.58;;
44850;SDS011;30583;48.714;9.386;2022-12-10T02:42:12;35.70;;;20.23;;
44850;SDS011;30583;48.714;9.386;2022-12-10T02:44:39;36.17;;;21.15;;
44850;SDS011;30583;48.714;9.386;2022-12-10T02:47:06;30.95;;;19.67;;
44850;SDS011;30583;48.714;9.386;2022-12-10T02:49:34;34.38;;;20.73;;
44850;SDS011;30583;48.714;9.386;2022-12-10T02:52:08;32.85;;;19.73;;
44850;SDS011;30583;48.714;9.386;2022-12-10T02:54:41;33.60;;;20.73;;
44850;SDS011;30583;48.714;9.386;2022-12-10T03:00:03;36.40;;;20.50;;
44850;SDS011;30583;48.714;9.386;2022-12-10T03:02:43;37.30;;;21.02;;
44850;SDS011;30583;48.714;9.386;2022-12-10T03:08:05;32.58;;;20.70;;
44850;SDS011;30583;48.714;9.386;2022-12-10T03:13:20;32.30;;;20.45;;
44850;SDS011;30583;48.714;9.386;2022-12-10T03:15:51;31.45;;;20.20;;
44850;SDS011;30583;48.714;9.386;2022-12-10T03:18:19;31.92;;;20.10;;
44850;SDS011;30583;48.714;9.386;2022-12-10T03:20:47;31.10;;;19.83;;
44850;SDS011;30583;48.714;9.386;2022-12-10T03:23:17;34.67;;;20.38;;
44850;SDS011;30583;48.714;9.386;2022-12-10T03:25:44;31.92;;;19.88;;
44850;SDS011;30583;48.714;9.386;2022-12-10T03:28:15;36.30;;;22.77;;
44850;SDS011;30583;48.714;9.386;2022-12-10T03:30:44;34.53;;;20.35;;
44850;SDS011;30583;48.714;9.386;2022-12-10T03:33:12;34.05;;;19.85;;
44850;SDS011;30583;48.714;9.386;2022-12-10T03:35:38;31.55;;;19.88;;
44850;SDS011;30583;48.714;9.386;2022-12-10T03:38:05;31.30;;;19.88;;
44850;SDS011;30583;48.714;9.386;2022-12-10T03:40:31;36.90;;;21.95;;
44850;SDS011;30583;48.714;9.386;2022-12-10T03:42:57;32.20;;;18.75;;
44850;SDS011;30583;48.714;9.386;2022-12-10T03:45:22;31.08;;;19.58;;
44850;SDS011;30583;48.714;9.386;2022-12-10T03:47:48;37.03;;;20.27;;
44850;SDS011;30583;48.714;9.386;2022-12-10T03:50:14;34.42;;;21.13;;
44850;SDS011;30583;48.714;9.386;2022-12-10T03:52:40;57.53;;;27.85;;
44850;SDS011;30583;48.714;9.386;2022-12-10T03:55:05;46.83;;;24.73;;
44850;SDS011;30583;48.714;9.386;2022-12-10T03:57:32;36.15;;;20.35;;
44850;SDS011;30583;48.714;9.386;2022-12-10T03:59:58;33.83;;;20.02;;
44850;SDS011;30583;48.714;9.386;2022-12-10T04:02:23;33.53;;;19.58;;
44850;SDS011;30583;48.714;9.386;2022-12-10T04:04:49;33.58;;;19.65;;
44850;SDS011;30583;48.714;9.386;2022-12-10T04:07:15;31.02;;;18.48;;
44850;SDS011;30583;48.714;9.386;2022-12-10T04:09:40;31.42;;;19.00;;
44850;SDS011;30583;48.714;9.386;2022-12-10T04:12:06;34.45;;;20.65;;
44850;SDS011;30583;48.714;9.386;2022-12-10T04:14:32;33.25;;;20.75;;
44850;SDS011;30583;48.714;9.386;2022-12-10T04:17:16;31.35;;;20.00;;
44850;SDS011;30583;48.714;9.386;2022-12-10T04:19:42;28.15;;;18.17;;
44850;SDS011;30583;48.714;9.386;2022-12-10T04:22:08;31.75;;;18.30;;
44850;SDS011;30583;48.714;9.386;2022-12-10T04:24:52;29.25;;;17.63;;
44850;SDS011;30583;48.714;9.386;2022-12-10T04:27:37;30.70;;;19.45;;
44850;SDS011;30583;48.714;9.386;2022-12-10T04:30:04;31.23;;;18.90;;
44850;SDS011;30583;48.714;9.386;2022-12-10T04:32:32;29.77;;;18.52;;
44850;SDS011;30583;48.714;9.386;2022-12-10T04:34:58;32.25;;;18.55;;
44850;SDS011;30583;48.714;9.386;2022-12-10T04:37:24;34.28;;;19.45;;
44850;SDS011;30583;48.714;9.386;2022-12-10T04:39:50;29.52;;;17.90;;
44850;SDS011;30583;48.714;9.386;2022-12-10T04:42:16;32.30;;;19.17;;
44850;SDS011;30583;48.714;9.386;2022-12-10T04:44:42;34.60;;;20.30;;
44850;SDS011;30583;48.714;9.386;2022-12-10T04:47:09;33.55;;;19.80;;
44850;SDS011;30583;48.714;9.386;2022-12-10T04:49:35;31.73;;;18.90;;
44850;SDS011;30583;48.714;9.386;2022-12-10T04:52:01;33.17;;;19.58;;
44850;SDS011;30583;48.714;9.386;2022-12-10T04:54:27;29.42;;;19.13;;
44850;SDS011;30583;48.714;9.386;2022-12-10T04:56:53;31.23;;;18.83;;
44850;SDS011;30583;48.714;9.386;2022-12-10T04:59:19;31.58;;;19.33;;
44850;SDS011;30583;48.714;9.386;2022-12-10T05:01:44;30.23;;;17.80;;
44850;SDS011;30583;48.714;9.386;2022-12-10T05:04:11;30.75;;;19.23;;
44850;SDS011;30583;48.714;9.386;2022-12-10T05:06:38;31.20;;;18.77;;
44850;SDS011;30583;48.714;9.386;2022-12-10T05:09:05;29.08;;;18.17;;
44850;SDS011;30583;48.714;9.386;2022-12-10T05:11:31;29.48;;;18.70;;
44850;SDS011;30583;48.714;9.386;2022-12-10T05:13:57;30.85;;;18.65;;
44850;SDS011;30583;48.714;9.386;2022-12-10T05:16:25;29.80;;;19.42;;
44850;SDS011;30583;48.714;9.386;2022-12-10T05:18:52;27.65;;;17.25;;
44850;SDS011;30583;48.714;9.386;2022-12-10T05:21:19;28.58;;;18.48;;
44850;SDS011;30583;48.714;9.386;2022-12-10T05:23:47;30.92;;;19.20;;
44850;SDS011;30583;48.714;9.386;2022-12-10T05:26:15;30.65;;;18.55;;
44850;SDS011;30583;48.714;9.386;2022-12-10T05:28:44;32.85;;;19.60;;
44850;SDS011;30583;48.714;9.386;2022-12-10T05:31:14;29.02;;;18.73;;
44850;SDS011;30583;48.714;9.386;2022-12-10T05:33:47;28.88;;;19.15;;
44850;SDS011;30583;48.714;9.386;2022-12-10T05:36:14;30.85;;;17.95;;
44850;SDS011;30583;48.714;9.386;2022-12-10T05:38:42;29.90;;;18.60;;
44850;SDS011;30583;48.714;9.386;2022-12-10T05:41:09;29.05;;;18.48;;
44850;SDS011;30583;48.714;9.386;2022-12-10T05:43:38;29.70;;;17.70;;
44850;SDS011;30583;48.714;9.386;2022-12-10T05:46:05;29.65;;;18.88;;
44850;SDS011;30583;48.714;9.386;2022-12-10T05:48:33;27.33;;;18.08;;
44850;SDS011;30583;48.714;9.386;2022-12-10T05:51:02;29.40;;;18.85;;
44850;SDS011;30583;48.714;9.386;2022-12-10T05:53:29;27.95;;;18.63;;
44850;SDS011;30583;48.714;9.386;2022-12-10T05:56:01;29.48;;;19.33;;
44850;SDS011;30583;48.714;9.386;2022-12-10T05:58:34;32.20;;;19.85;;
44850;SDS011;30583;48.714;9.386;2022-12-10T06:01:05;27.73;;;17.60;;
44850;SDS011;30583;48.714;9.386;2022-12-10T06:03:32;27.30;;;17.92;;
44850;SDS011;30583;48.714;9.386;2022-12-10T06:05:58;29.25;;;18.60;;
44850;SDS011;30583;48.714;9.386;2022-12-10T06:08:23;29.05;;;18.73;;
44850;SDS011;30583;48.714;9.386;2022-12-10T06:10:49;29.00;;;18.10;;
44850;SDS011;30583;48.714;9.386;2022-12-10T06:13:14;34.53;;;20.88;;
44850;SDS011;30583;48.714;9.386;2022-12-10T06:15:40;36.63;;;19.58;;
44850;SDS011;30583;48.714;9.386;2022-12-10T06:18:06;27.98;;;18.08;;
44850;SDS011;30583;48.714;9.386;2022-12-10T06:20:33;28.02;;;17.70;;
44850;SDS011;30583;48.714;9.386;2022-12-10T06:23:01;33.28;;;18.42;;
44850;SDS011;30583;48.714;9.386;2022-12-10T06:25:27;30.92;;;18.63;;
44850;SDS011;30583;48.714;9.386;2022-12-10T06:27:52;27.33;;;17.23;;
44850;SDS011;30583;48.714;9.386;2022-12-10T06:30:18;28.88;;;18.60;;
44850;SDS011;30583;48.714;9.386;2022-12-10T06:32:43;30.90;;;19.83;;
44850;SDS011;30583;48.714;9.386;2022-12-10T06:35:09;30.25;;;18.80;;
44850;SDS011;30583;48.714;9.386;2022-12-10T06:37:35;29.55;;;19.00;;
44850;SDS011;30583;48.714;9.386;2022-12-10T06:40:01;31.58;;;19.75;;
44850;SDS011;30583;48.714;9.386;2022-12-10T06:42:27;30.67;;;19.08;;
44850;SDS011;30583;48.714;9.386;2022-12-10T06:44:53;29.30;;;18.83;;
44850;SDS011;30583;48.714;9.386;2022-12-10T06:47:18;31.48;;;19.10;;
44850;SDS011;30583;48.714;9.386;2022-12-10T06:49:44;32.95;;;21.08;;
44850;SDS011;30583;48.714;9.386;2022-12-10T06:52:09;29.27;;;19.88;;
44850;SDS011;30583;48.714;9.386;2022-12-10T06:54:35;32.53;;;19.80;;
44850;SDS011;30583;48.714;9.386;2022-12-10T06:57:01;31.10;;;19.73;;
44850;SDS011;30583;48.714;9.386;2022-12-10T06:59:26;30.42;;;20.67;;
44850;SDS011;30583;48.714;9.386;2022-12-10T07:01:52;30.88;;;20.25;;
44850;SDS011;30583;48.714;9.386;2022-12-10T07:04:17;34.30;;;20.83;;
44850;SDS011;30583;48.714;9.386;2022-12-10T07:06:43;33.70;;;20.05;;
44850;SDS011;30583;48.714;9.386;2022-12-10T07:09:09;33.03;;;19.92;;
44850;SDS011;30583;48.714;9.386;2022-12-10T07:11:35;31.60;;;20.27;;
44850;SDS011;30583;48.714;9.386;2022-12-10T07:14:01;30.17;;;18.60;;
44850;SDS011;30583;48.714;9.386;2022-12-10T07:16:28;35.92;;;20.15;;
44850;SDS011;30583;48.714;9.386;2022-12-10T07:18:57;35.55;;;22.23;;
44850;SDS011;30583;48.714;9.386;2022-12-10T07:23:58;32.03;;;19.38;;
44850;SDS011;30583;48.714;9.386;2022-12-10T07:26:30;33.45;;;19.75;;
44850;SDS011;30583;48.714;9.386;2022-12-10T07:28:58;38.42;;;20.77;;
44850;SDS011;30583;48.714;9.386;2022-12-10T07:31:24;38.30;;;20.23;;
44850;SDS011;30583;48.714;9.386;2022-12-10T07:33:50;35.72;;;20.95;;
44850;SDS011;30583;48.714;9.386;2022-12-10T07:36:17;34.25;;;20.70;;
44850;SDS011;30583;48.714;9.386;2022-12-10T07:38:42;37.10;;;20.48;;
44850;SDS011;30583;48.714;9.386;2022-12-10T07:41:09;31.90;;;19.63;;
44850;SDS011;30583;48.714;9.386;2022-12-10T07:43:37;34.35;;;19.60;;
44850;SDS011;30583;48.714;9.386;2022-12-10T07:46:08;31.48;;;19.88;;
44850;SDS011;30583;48.714;9.386;2022-12-10T07:48:37;33.10;;;20.13;;
44850;SDS011;30583;48.714;9.386;2022-12-10T07:51:04;33.17;;;21.42;;
44850;SDS011;30583;48.714;9.386;2022-12-10T07:53:30;36.85;;;20.27;;
44850;SDS011;30583;48.714;9.386;2022-12-10T07:55:56;35.97;;;19.58;;
44850;SDS011;30583;48.714;9.386;2022-12-10T07:58:22;37.70;;;21.08;;
44850;SDS011;30583;48.714;9.386;2022-12-10T08:00:47;31.27;;;18.85;;
44850;SDS011;30583;48.714;9.386;2022-12-10T08:03:13;35.17;;;20.08;;
44850;SDS011;30583;48.714;9.386;2022-12-10T08:05:39;29.92;;;20.23;;
44850;SDS011;30583;48.714;9.386;2022-12-10T08:08:04;32.75;;;19.70;;
44850;SDS011;30583;48.714;9.386;2022-12-10T08:10:33;30.88;;;19.35;;
44850;SDS011;30583;48.714;9.386;2022-12-10T08:12:59;29.50;;;19.30;;
44850;SDS011;30583;48.714;9.386;2022-12-10T08:15:24;29.50;;;19.75;;
44850;SDS011;30583;48.714;9.386;2022-12-10T08:17:50;32.22;;;19.27;;
44850;SDS011;30583;48.714;9.386;2022-12-10T08:20:16;30.42;;;19.23;;
44850;SDS011;30583;48.714;9.386;2022-12-10T08:22:41;28.75;;;19.00;;
44850;SDS011;30583;48.714;9.386;2022-12-10T08:25:07;31.25;;;19.77;;
44850;SDS011;30583;48.714;9.386;2022-12-10T08:27:32;33.70;;;19.35;;
44850;SDS011;30583;48.714;9.386;2022-12-10T08:29:58;33.70;;;20.55;;
44850;SDS011;30583;48.714;9.386;2022-12-10T08:32:24;33.15;;;20.38;;
44850;SDS011;30583;48.714;9.386;2022-12-10T08:34:49;31.88;;;19.48;;
44850;SDS011;30583;48.714;9.386;2022-12-10T08:37:15;33.38;;;19.98;;
44850;SDS011;30583;48.714;9.386;2022-12-10T08:39:40;32.42;;;19.90;;
44850;SDS011;30583;48.714;9.386;2022-12-10T08:42:06;30.50;;;19.00;;
44850;SDS011;30583;48.714;9.386;2022-12-10T08:44:31;36.05;;;21.27;;
44850;SDS011;30583;48.714;9.386;2022-12-10T08:46:57;31.95;;;20.70;;
44850;SDS011;30583;48.714;9.386;2022-12-10T08:49:23;32.35;;;19.95;;
44850;SDS011;30583;48.714;9.386;2022-12-10T08:51:48;32.35;;;18.98;;
44850;SDS011;30583;48.714;9.386;2022-12-10T08:54:14;32.38;;;20.30;;
44850;SDS011;30583;48.714;9.386;2022-12-10T08:56:39;33.63;;;20.50;;
44850;SDS011;30583;48.714;9.386;2022-12-10T08:59:05;31.92;;;19.17;;
44850;SDS011;30583;48.714;9.386;2022-12-10T09:01:31;31.75;;;19.15;;
44850;SDS011;30583;48.714;9.386;2022-12-10T09:03:57;32.25;;;21.00;;
44850;SDS011;30583;48.714;9.386;2022-12-10T09:06:23;34.00;;;20.90;;
44850;SDS011;30583;48.714;9.386;2022-12-10T09:08:49;31.95;;;20.50;;
44850;SDS011;30583;48.714;9.386;2022-12-10T09:11:20;29.85;;;19.67;;
44850;SDS011;30583;48.714;9.386;2022-12-10T09:13:48;30.90;;;19.45;;
44850;SDS011;30583;48.714;9.386;2022-12-10T09:16:15;31.45;;;20.50;;
44850;SDS011;30583;48.714;9.386;2022-12-10T09:18:40;32.42;;;20.83;;
44850;SDS011;30583;48.714;9.386;2022-12-10T09:21:07;33.53;;;20.00;;
44850;SDS011;30583;48.714;9.386;2022-12-10T09:23:37;31.08;;;20.23;;
44850;SDS011;30583;48.714;9.386;2022-12-10T09:26:09;33.33;;;21.15;;
44850;SDS011;30583;48.714;9.386;2022-12-10T09:31:03;36.03;;;21.48;;
44850;SDS011;30583;48.714;9.386;2022-12-10T09:33:30;32.67;;;19.88;;
44850;SDS011;30583;48.714;9.386;2022-12-10T09:35:56;32.65;;;20.30;;
44850;SDS011;30583;48.714;9.386;2022-12-10T09:38:22;30.75;;;19.40;;
44850;SDS011;30583;48.714;9.386;2022-12-10T09:40:54;29.13;;;18.77;;
44850;SDS011;30583;48.714;9.386;2022-12-10T09:43:32;31.10;;;19.20;;
44850;SDS011;30583;48.714;9.386;2022-12-10T09:46:59;31.77;;;19.58;;
44850;SDS011;30583;48.714;9.386;2022-12-10T09:49:13;33.17;;;19.90;;
44850;SDS011;30583;48.714;9.386;2022-12-10T09:51:47;33.47;;;19.38;;
44850;SDS011;30583;48.714;9.386;2022-12-10T09:54:24;27.73;;;18.27;;
44850;SDS011;30583;48.714;9.386;2022-12-10T09:56:52;31.10;;;19.17;;
44850;SDS011;30583;48.714;9.386;2022-12-10T09:59:42;28.77;;;18.83;;
44850;SDS011;30583;48.714;9.386;2022-12-10T10:04:50;30.02;;;19.95;;
44850;SDS011;30583;48.714;9.386;2022-12-10T10:07:23;29.80;;;20.08;;
44850;SDS011;30583;48.714;9.386;2022-12-10T10:09:58;33.30;;;20.77;;
44850;SDS011;30583;48.714;9.386;2022-12-10T10:12:27;36.17;;;21.42;;
44850;SDS011;30583;48.714;9.386;2022-12-10T10:14:53;32.95;;;22.35;;
44850;SDS011;30583;48.714;9.386;2022-12-10T10:17:20;33.70;;;21.27;;
44850;SDS011;30583;48.714;9.386;2022-12-10T10:19:51;34.85;;;21.85;;
44850;SDS011;30583;48.714;9.386;2022-12-10T10:22:17;33.30;;;18.90;;
44850;SDS011;30583;48.714;9.386;2022-12-10T10:24:44;33.53;;;20.65;;
44850;SDS011;30583;48.714;9.386;2022-12-10T10:29:47;32.25;;;20.33;;
44850;SDS011;30583;48.714;9.386;2022-12-10T10:32:18;33.03;;;20.05;;
44850;SDS011;30583;48.714;9.386;2022-12-10T10:34:45;31.38;;;19.50;;
44850;SDS011;30583;48.714;9.386;2022-12-10T10:37:21;30.08;;;19.40;;
44850;SDS011;30583;48.714;9.386;2022-12-10T10:39:56;30.40;;;18.90;;
44850;SDS011;30583;48.714;9.386;2022-12-10T10:44:51;29.50;;;19.08;;
44850;SDS011;30583;48.714;9.386;2022-12-10T10:47:30;27.88;;;18.30;;
44850;SDS011;30583;48.714;9.386;2022-12-10T10:49:57;29.95;;;18.48;;
44850;SDS011;30583;48.714;9.386;2022-12-10T10:52:25;35.42;;;19.98;;
44850;SDS011;30583;48.714;9.386;2022-12-10T10:54:54;30.40;;;19.50;;
44850;SDS011;30583;48.714;9.386;2022-12-10T10:59:48;29.10;;;18.13;;
44850;SDS011;30583;48.714;9.386;2022-12-10T11:02:29;28.42;;;17.90;;
44850;SDS011;30583;48.714;9.386;2022-12-10T11:05:03;30.40;;;18.95;;
44850;SDS011;30583;48.714;9.386;2022-12-10T11:08:00;29.25;;;18.13;;
44850;SDS011;30583;48.714;9.386;2022-12-10T11:10:28;34.17;;;11.82;;
44850;SDS011;30583;48.714;9.386;2022-12-10T11:13:07;27.63;;;17.77;;
44850;SDS011;30583;48.714;9.386;2022-12-10T11:18:37;28.17;;;17.73;;
44850;SDS011;30583;48.714;9.386;2022-12-10T11:23:48;27.92;;;18.55;;
44850;SDS011;30583;48.714;9.386;2022-12-10T11:29:22;30.45;;;17.85;;
44850;SDS011;30583;48.714;9.386;2022-12-10T11:35:08;31.58;;;19.75;;
44850;SDS011;30583;48.714;9.386;2022-12-10T11:40:30;33.42;;;18.90;;
44850;SDS011;30583;48.714;9.386;2022-12-10T11:45:47;28.48;;;18.40;;
44850;SDS011;30583;48.714;9.386;2022-12-10T11:51:57;31.38;;;18.83;;
44850;SDS011;30583;48.714;9.386;2022-12-10T11:54:26;29.27;;;18.92;;
44850;SDS011;30583;48.714;9.386;2022-12-10T12:00:20;30.70;;;18.83;;
44850;SDS011;30583;48.714;9.386;2022-12-10T12:03:00;33.70;;;19.25;;
44850;SDS011;30583;48.714;9.386;2022-12-10T12:06:07;29.23;;;18.38;;
44850;SDS011;30583;48.714;9.386;2022-12-10T12:09:16;34.17;;;20.33;;
44850;SDS011;30583;48.714;9.386;2022-12-10T12:14:40;31.67;;;18.63;;
44850;SDS011;30583;48.714;9.386;2022-12-10T12:20:14;29.80;;;19.17;;
44850;SDS011;30583;48.714;9.386;2022-12-10T12:22:46;29.02;;;17.42;;
44850;SDS011;30583;48.714;9.386;2022-12-10T12:25:25;28.85;;;17.40;;
44850;SDS011;30583;48.714;9.386;2022-12-10T12:28:25;29.90;;;17.50;;
44850;SDS011;30583;48.714;9.386;2022-12-10T12:31:03;27.17;;;17.63;;
44850;SDS011;30583;48.714;9.386;2022-12-10T12:33:41;27.20;;;17.20;;
44850;SDS011;30583;48.714;9.386;2022-12-10T12:36:19;27.85;;;17.55;;
44850;SDS011;30583;48.714;9.386;2022-12-10T12:44:45;27.33;;;17.17;;
44850;SDS011;30583;48.714;9.386;2022-12-10T12:49:53;28.25;;;17.65;;
44850;SDS011;30583;48.714;9.386;2022-12-10T12:55:20;28.35;;;17.00;;
44850;SDS011;30583;48.714;9.386;2022-12-10T12:57:53;30.33;;;18.08;;
44850;SDS011;30583;48.714;9.386;2022-12-10T13:00:35;28.83;;;16.88;;
44850;SDS011;30583;48.714;9.386;2022-12-10T13:05:46;29.55;;;17.83;;
44850;SDS011;30583;48.714;9.386;2022-12-10T13:10:44;25.10;;;15.93;;
44850;SDS011;30583;48.714;9.386;2022-12-10T13:13:24;24.40;;;16.25;;
44850;SDS011;30583;48.714;9.386;2022-12-10T13:15:52;28.88;;;17.77;;
44850;SDS011;30583;48.714;9.386;2022-12-10T13:18:20;26.58;;;15.98;;
44850;SDS011;30583;48.714;9.386;2022-12-10T13:20:48;30.77;;;17.42;;
44850;SDS011;30583;48.714;9.386;2022-12-10T13:23:33;25.30;;;15.88;;
44850;SDS011;30583;48.714;9.386;2022-12-10T13:26:28;41.97;;;21.80;;
44850;SDS011;30583;48.714;9.386;2022-12-10T13:28:56;29.83;;;18.48;;
44850;SDS011;30583;48.714;9.386;2022-12-10T13:31:54;26.13;;;16.25;;
44850;SDS011;30583;48.714;9.386;2022-12-10T13:34:38;26.00;;;16.45;;
44850;SDS011;30583;48.714;9.386;2022-12-10T13:37:05;28.90;;;17.00;;
44850;SDS011;30583;48.714;9.386;2022-12-10T13:39:35;27.55;;;16.13;;
44850;SDS011;30583;48.714;9.386;2022-12-10T13:47:27;16.27;;;10.02;;
44850;SDS011;30583;48.714;9.386;2022-12-10T13:50:15;15.63;;;9.23;;
44850;SDS011;30583;48.714;9.386;2022-12-10T14:00:58;26.60;;;16.85;;
44850;SDS011;30583;48.714;9.386;2022-12-10T14:06:14;27.40;;;17.45;;
44850;SDS011;30583;48.714;9.386;2022-12-10T14:08:54;29.13;;;16.98;;
44850;SDS011;30583;48.714;9.386;2022-12-10T14:11:22;26.00;;;17.70;;
44850;SDS011;30583;48.714;9.386;2022-12-10T14:13:53;25.50;;;16.42;;
44850;SDS011;30583;48.714;9.386;2022-12-10T14:16:26;24.95;;;16.52;;
44850;SDS011;30583;48.714;9.386;2022-12-10T14:18:59;27.60;;;17.17;;
44850;SDS011;30583;48.714;9.386;2022-12-10T14:21:31;27.05;;;17.25;;
44850;SDS011;30583;48.714;9.386;2022-12-10T14:24:03;27.17;;;17.10;;
44850;SDS011;30583;48.714;9.386;2022-12-10T14:26:31;25.15;;;17.33;;
44850;SDS011;30583;48.714;9.386;2022-12-10T14:28:59;52.83;;;18.75;;
44850;SDS011;30583;48.714;9.386;2022-12-10T14:31:33;30.30;;;17.92;;
44850;SDS011;30583;48.714;9.386;2022-12-10T14:34:06;24.40;;;16.17;;
44850;SDS011;30583;48.714;9.386;2022-12-10T14:36:34;32.92;;;17.63;;
44850;SDS011;30583;48.714;9.386;2022-12-10T14:39:04;45.13;;;23.85;;
44850;SDS011;30583;48.714;9.386;2022-12-10T14:41:41;32.47;;;17.92;;
44850;SDS011;30583;48.714;9.386;2022-12-10T14:44:08;56.22;;;29.60;;
44850;SDS011;30583;48.714;9.386;2022-12-10T14:46:38;36.80;;;20.88;;
44850;SDS011;30583;48.714;9.386;2022-12-10T14:49:04;29.55;;;18.25;;
44850;SDS011;30583;48.714;9.386;2022-12-10T14:51:36;28.02;;;17.58;;
44850;SDS011;30583;48.714;9.386;2022-12-10T14:54:02;27.42;;;16.90;;
44850;SDS011;30583;48.714;9.386;2022-12-10T14:56:35;32.65;;;17.15;;
44850;SDS011;30583;48.714;9.386;2022-12-10T14:59:08;29.48;;;17.20;;
44850;SDS011;30583;48.714;9.386;2022-12-10T15:01:40;27.17;;;16.67;;
44850;SDS011;30583;48.714;9.386;2022-12-10T15:04:16;29.30;;;17.55;;
44850;SDS011;30583;48.714;9.386;2022-12-10T15:06:43;31.17;;;18.75;;
44850;SDS011;30583;48.714;9.386;2022-12-10T15:09:13;34.95;;;20.33;;
44850;SDS011;30583;48.714;9.386;2022-12-10T15:11:55;32.00;;;18.02;;
44850;SDS011;30583;48.714;9.386;2022-12-10T15:14:23;36.33;;;19.83;;
44850;SDS011;30583;48.714;9.386;2022-12-10T15:16:50;43.28;;;26.50;;
44850;SDS011;30583;48.714;9.386;2022-12-10T15:19:23;36.75;;;20.58;;
44850;SDS011;30583;48.714;9.386;2022-12-10T15:21:52;34.78;;;20.15;;
44850;SDS011;30583;48.714;9.386;2022-12-10T15:24:37;35.47;;;19.67;;
44850;SDS011;30583;48.714;9.386;2022-12-10T15:27:19;31.67;;;18.38;;
44850;SDS011;30583;48.714;9.386;2022-12-10T15:29:46;29.73;;;18.27;;
44850;SDS011;30583;48.714;9.386;2022-12-10T15:32:14;32.72;;;18.20;;
44850;SDS011;30583;48.714;9.386;2022-12-10T15:34:45;32.35;;;18.63;;
44850;SDS011;30583;48.714;9.386;2022-12-10T15:37:19;30.80;;;17.85;;
44850;SDS011;30583;48.714;9.386;2022-12-10T15:39:49;30.38;;;17.83;;
44850;SDS011;30583;48.714;9.386;2022-12-10T15:45:25;32.88;;;17.13;;
44850;SDS011;30583;48.714;9.386;2022-12-10T15:48:03;28.40;;;17.25;;
44850;SDS011;30583;48.714;9.386;2022-12-10T15:50:33;27.90;;;17.20;;
44850;SDS011;30583;48.714;9.386;2022-12-10T15:52:59;29.15;;;16.63;;
44850;SDS011;30583;48.714;9.386;2022-12-10T15:55:24;27.45;;;16.67;;
44850;SDS011;30583;48.714;9.386;2022-12-10T15:57:50;26.80;;;17.30;;
44850;SDS011;30583;48.714;9.386;2022-12-10T16:00:17;31.45;;;17.67;;
44850;SDS011;30583;48.714;9.386;2022-12-10T16:02:49;27.55;;;16.20;;
44850;SDS011;30583;48.714;9.386;2022-12-10T16:05:20;28.17;;;17.08;;
44850;SDS011;30583;48.714;9.386;2022-12-10T16:07:47;28.17;;;17.90;;
44850;SDS011;30583;48.714;9.386;2022-12-10T16:10:15;28.02;;;17.20;;
44850;SDS011;30583;48.714;9.386;2022-12-10T16:12:43;28.77;;;16.92;;
44850;SDS011;30583;48.714;9.386;2022-12-10T16:15:24;31.23;;;18.42;;